Time;durP1;ratioP1;P1;durP2;ratioP2;P2;SDS_P1;SDS_P2;PMS_P1;PMS_P2;Temp;Humidity;BMP_temperature;BMP_pressure;BME280_temperature;BME280_humidity;BME280_pressure;Samples;Min_cycle;Max_cycle;Signal;HPM_P1;HPM_P2
2022/03/20 00:02:05;;;;;;;1999.90;999.90;;;2.50;99.90;;;;;;5052620;28;20446;-69
2022/03/20 00:04:32;;;;;;;1999.90;999.90;;;2.50;99.90;;;;;;5053802;28;20466;-68
2022/03/20 00:07:00;;;;;;;1999.90;999.90;;;2.50;99.90;;;;;;5053968;28;20442;-69
2022/03/20 00:09:27;;;;;;;1999.90;999.90;;;2.50;99.90;;;;;;5054016;28;20450;-69
2022/03/20 00:11:53;;;;;;;1999.90;999.90;;;2.40;99.90;;;;;;5054583;28;20482;-68
2022/03/20 00:14:20;;;;;;;1999.90;999.90;;;2.40;99.90;;;;;;5054915;28;21042;-69
2022/03/20 00:16:47;;;;;;;1999.90;999.90;;;2.40;99.90;;;;;;5054495;28;20492;-69
2022/03/20 00:19:14;;;;;;;1999.90;999.90;;;2.40;99.90;;;;;;5054875;28;20517;-69
2022/03/20 00:21:41;;;;;;;1999.90;999.90;;;2.30;99.90;;;;;;5053950;28;20969;-69
2022/03/20 00:24:09;;;;;;;1999.90;999.90;;;2.20;99.90;;;;;;5055148;28;20478;-68
2022/03/20 00:26:39;;;;;;;1999.90;999.90;;;2.20;99.90;;;;;;5054400;28;20451;-70
2022/03/20 00:29:06;;;;;;;1999.90;999.90;;;2.20;99.90;;;;;;5055134;28;20473;-69
2022/03/20 00:31:33;;;;;;;1999.90;999.90;;;2.30;99.90;;;;;;5054198;28;20459;-69
2022/03/20 00:34:00;;;;;;;1999.90;999.90;;;2.30;99.90;;;;;;5054629;28;20502;-69
2022/03/20 00:36:27;;;;;;;1999.90;999.90;;;2.50;99.90;;;;;;5052288;28;20447;-68
2022/03/20 00:38:53;;;;;;;1999.90;999.90;;;2.20;99.90;;;;;;5053329;28;20442;-68
2022/03/20 00:41:21;;;;;;;1999.90;999.90;;;2.20;99.90;;;;;;5053890;28;20938;-69
2022/03/20 00:43:48;;;;;;;1999.90;999.90;;;2.40;99.90;;;;;;5053722;28;20467;-69
2022/03/20 00:46:14;;;;;;;1999.90;999.90;;;2.10;99.90;;;;;;5054525;28;20442;-69
2022/03/20 00:48:41;;;;;;;1999.90;999.90;;;2.10;99.90;;;;;;5054815;28;20488;-69
2022/03/20 00:51:10;;;;;;;1999.90;999.90;;;2.00;99.90;;;;;;5054197;28;20804;-69
2022/03/20 00:53:38;;;;;;;1999.90;999.90;;;1.90;99.90;;;;;;5054267;28;20896;-69
2022/03/20 00:56:05;;;;;;;1999.90;999.90;;;1.90;99.90;;;;;;5053512;28;20552;-69
2022/03/20 00:58:33;;;;;;;1999.90;999.90;;;1.80;99.90;;;;;;5053591;28;20454;-68
2022/03/20 01:01:00;;;;;;;1999.90;999.90;;;1.70;99.90;;;;;;5052606;28;20889;-69
2022/03/20 01:03:26;;;;;;;1999.90;999.90;;;1.70;99.90;;;;;;5053303;28;20476;-69
2022/03/20 01:05:53;;;;;;;1999.90;999.90;;;1.70;99.90;;;;;;5053501;28;20524;-70
2022/03/20 01:08:20;;;;;;;1999.90;999.90;;;1.60;99.90;;;;;;5053206;28;20486;-69
2022/03/20 01:10:47;;;;;;;1999.90;999.90;;;1.70;99.90;;;;;;5053885;28;20447;-69
2022/03/20 01:13:13;;;;;;;1999.90;999.90;;;1.60;99.90;;;;;;5052848;28;21005;-69
2022/03/20 01:15:41;;;;;;;1999.90;999.90;;;1.60;99.90;;;;;;5053414;28;20504;-69
2022/03/20 01:18:08;;;;;;;1999.90;999.90;;;1.50;99.90;;;;;;5052696;28;20475;-70
2022/03/20 01:20:35;;;;;;;1999.90;999.90;;;1.50;99.90;;;;;;5052664;28;20450;-69
2022/03/20 01:23:02;;;;;;;1999.90;999.90;;;1.50;99.90;;;;;;5053030;28;20450;-69
2022/03/20 01:25:30;;;;;;;1999.90;999.90;;;1.40;99.90;;;;;;5053854;28;20938;-69
2022/03/20 01:27:57;;;;;;;1999.90;999.90;;;1.60;99.90;;;;;;5053812;28;20493;-69
2022/03/20 01:30:23;;;;;;;1999.90;999.90;;;1.40;99.90;;;;;;5054383;28;20520;-68
2022/03/20 01:32:52;;;;;;;1999.90;999.90;;;1.40;99.90;;;;;;5054190;28;20477;-69
2022/03/20 01:35:18;;;;;;;1999.90;999.90;;;1.50;99.90;;;;;;5054103;28;20470;-69
2022/03/20 01:37:45;;;;;;;1999.90;999.90;;;1.50;99.90;;;;;;5053795;28;20446;-69
2022/03/20 01:40:12;;;;;;;1999.90;999.90;;;1.80;99.90;;;;;;5054021;28;20442;-68
2022/03/20 01:42:39;;;;;;;1999.90;999.90;;;1.30;99.90;;;;;;5053705;28;20533;-69
2022/03/20 01:45:17;;;;;;;1999.90;999.90;;;1.30;99.90;;;;;;5054016;28;20569;-69
2022/03/20 01:47:47;;;;;;;1999.90;999.90;;;1.30;99.90;;;;;;5053612;28;20450;-69
2022/03/20 01:50:15;;;;;;;1999.90;999.90;;;1.20;99.90;;;;;;5053239;28;21034;-68
2022/03/20 01:52:42;;;;;;;1999.90;999.90;;;1.20;99.90;;;;;;5053227;28;20478;-70
2022/03/20 01:55:08;;;;;;;1999.90;999.90;;;1.20;99.90;;;;;;5053457;28;20466;-69
2022/03/20 01:57:36;;;;;;;1999.90;999.90;;;1.20;99.90;;;;;;5053216;28;20537;-69
2022/03/20 02:00:05;;;;;;;1999.90;999.90;;;1.40;99.90;;;;;;5053464;28;20465;-69
2022/03/20 02:02:31;;;;;;;1999.90;999.90;;;1.10;99.90;;;;;;5053120;28;20442;-69
2022/03/20 02:04:58;;;;;;;1999.90;999.90;;;1.10;99.90;;;;;;5053044;28;20889;-68
2022/03/20 02:07:27;;;;;;;1999.90;999.90;;;1.00;99.90;;;;;;5052033;28;20476;-69
2022/03/20 02:09:54;;;;;;;1999.90;999.90;;;0.80;99.90;;;;;;5052320;28;20459;-70
2022/03/20 02:12:21;;;;;;;1999.90;999.90;;;0.90;99.90;;;;;;5052319;28;20478;-69
2022/03/20 02:14:48;;;;;;;1999.90;999.90;;;0.70;99.90;;;;;;5052629;28;20475;-69
2022/03/20 02:17:14;;;;;;;1999.90;999.90;;;0.60;99.90;;;;;;5051831;28;20468;-69
2022/03/20 02:19:41;;;;;;;1999.90;999.90;;;0.50;99.90;;;;;;5052773;28;20498;-69
2022/03/20 02:22:09;;;;;;;1999.90;999.90;;;0.90;99.90;;;;;;5053575;28;20541;-69
2022/03/20 02:24:40;;;;;;;1999.90;999.90;;;0.50;99.90;;;;;;5053896;28;20477;-69
2022/03/20 02:27:11;;;;;;;1999.90;999.90;;;0.50;99.90;;;;;;5053818;28;20454;-70
2022/03/20 02:29:38;;;;;;;1999.90;999.90;;;0.60;99.90;;;;;;5054307;28;20924;-69
2022/03/20 02:32:06;;;;;;;1999.90;999.90;;;0.60;99.90;;;;;;5053605;28;20507;-70
2022/03/20 02:34:33;;;;;;;1999.90;999.90;;;0.70;99.90;;;;;;5053746;28;20998;-69
2022/03/20 02:37:01;;;;;;;1999.90;999.90;;;1.30;99.90;;;;;;5053556;28;20446;-70
2022/03/20 02:39:30;;;;;;;1999.90;999.90;;;0.80;99.90;;;;;;5053820;28;20442;-69
2022/03/20 02:42:00;;;;;;;1999.90;999.90;;;0.90;99.90;;;;;;5052876;28;20452;-70
2022/03/20 02:44:53;;;;;;;1999.90;999.90;;;0.90;99.90;;;;;;5053996;28;20523;-68
2022/03/20 02:47:23;;;;;;;1999.90;999.90;;;0.80;99.90;;;;;;5049509;28;20454;-69
2022/03/20 02:49:53;;;;;;;1999.90;999.90;;;0.80;99.90;;;;;;5053691;28;20448;-71
2022/03/20 02:52:19;;;;;;;1999.90;999.90;;;0.80;99.90;;;;;;5050876;28;20454;-71
2022/03/20 02:54:47;;;;;;;1999.90;999.90;;;0.90;99.90;;;;;;5051893;28;20877;-71
2022/03/20 02:57:14;;;;;;;1999.90;999.90;;;0.90;99.90;;;;;;5051625;28;20831;-71
2022/03/20 02:59:41;;;;;;;1999.90;999.90;;;0.90;99.90;;;;;;5051310;28;20482;-71
2022/03/20 03:02:11;;;;;;;1999.90;999.90;;;0.90;99.90;;;;;;5051196;28;20450;-71
2022/03/20 03:04:38;;;;;;;1999.90;999.90;;;1.00;99.90;;;;;;5051477;28;20548;-71
2022/03/20 03:07:05;;;;;;;1999.90;999.90;;;0.90;99.90;;;;;;5051467;28;20476;-71
2022/03/20 03:12:18;;;;;;;1999.90;999.90;;;1.00;99.90;;;;;;5051075;28;20576;-71
2022/03/20 03:17:29;;;;;;;1999.90;999.90;;;1.00;99.90;;;;;;5031713;28;20402;-71
2022/03/20 03:19:56;;;;;;;1999.90;999.90;;;1.00;99.90;;;;;;5032013;28;20447;-71
2022/03/20 03:22:23;;;;;;;1999.90;999.90;;;1.00;99.90;;;;;;5051053;28;20850;-71
2022/03/20 03:24:50;;;;;;;1999.90;999.90;;;1.30;99.90;;;;;;5051496;28;20478;-71
2022/03/20 03:27:18;;;;;;;1999.90;999.90;;;0.90;99.90;;;;;;5051459;28;20500;-71
2022/03/20 03:29:45;;;;;;;1999.90;999.90;;;1.30;99.90;;;;;;5051143;28;20504;-71
2022/03/20 03:32:11;;;;;;;1999.90;999.90;;;1.50;99.90;;;;;;5051176;28;20454;-71
2022/03/20 03:37:22;;;;;;;1999.90;999.90;;;1.00;99.90;;;;;;5051539;28;20430;-71
2022/03/20 03:39:50;;;;;;;1999.90;999.90;;;1.50;99.90;;;;;;5051001;28;20865;-71
2022/03/20 03:42:19;;;;;;;1999.90;999.90;;;1.40;99.90;;;;;;5050769;28;20500;-71
2022/03/20 03:44:46;;;;;;;1999.90;999.90;;;0.90;99.90;;;;;;5051217;28;20549;-71
2022/03/20 03:47:13;;;;;;;1999.90;999.90;;;1.00;99.90;;;;;;5051250;28;20454;-72
2022/03/20 03:49:40;;;;;;;1999.90;999.90;;;1.10;99.90;;;;;;5050931;28;21011;-71
2022/03/20 03:52:07;;;;;;;1999.90;999.90;;;1.10;99.90;;;;;;5051117;28;20496;-71
2022/03/20 03:54:34;;;;;;;1999.90;999.90;;;0.90;99.90;;;;;;5050483;28;20990;-71
2022/03/20 03:57:00;;;;;;;1999.90;999.90;;;0.80;99.90;;;;;;5049563;28;20509;-71
2022/03/20 03:59:28;;;;;;;1999.90;999.90;;;1.50;99.90;;;;;;5049203;28;20458;-71
2022/03/20 04:01:56;;;;;;;1999.90;999.90;;;0.90;99.90;;;;;;5049567;28;20450;-71
2022/03/20 04:04:22;;;;;;;1999.90;999.90;;;1.00;99.90;;;;;;5049480;28;20463;-71
2022/03/20 04:06:49;;;;;;;1999.90;999.90;;;0.80;99.90;;;;;;5049875;28;20449;-71
2022/03/20 04:09:15;;;;;;;1999.90;999.90;;;1.00;99.90;;;;;;5048575;28;20454;-71
2022/03/20 04:11:42;;;;;;;1999.90;999.90;;;1.20;99.90;;;;;;5052186;28;20505;-71
2022/03/20 04:14:09;;;;;;;1999.90;999.90;;;0.90;99.90;;;;;;5054644;28;20482;-71
2022/03/20 04:16:37;;;;;;;1999.90;999.90;;;0.80;99.90;;;;;;5054868;28;20442;-71
2022/03/20 04:19:04;;;;;;;1999.90;999.90;;;0.70;99.90;;;;;;5054416;28;20447;-71
2022/03/20 04:21:31;;;;;;;1999.90;999.90;;;1.20;99.90;;;;;;5054466;28;20858;-71
2022/03/20 04:23:57;;;;;;;1999.90;999.90;;;1.10;99.90;;;;;;5053744;28;20473;-71
2022/03/20 04:26:25;;;;;;;1999.90;999.90;;;1.20;99.90;;;;;;5054512;28;20455;-71
2022/03/20 04:28:53;;;;;;;1999.90;999.90;;;1.20;99.90;;;;;;5054126;28;20500;-71
2022/03/20 04:31:21;;;;;;;1999.90;999.90;;;0.60;99.90;;;;;;5053968;28;20879;-71
2022/03/20 04:33:50;;;;;;;1999.90;999.90;;;0.60;99.90;;;;;;5054364;28;20478;-71
2022/03/20 04:36:17;;;;;;;1999.90;999.90;;;1.20;99.90;;;;;;5054410;28;20446;-71
2022/03/20 04:38:44;;;;;;;1999.90;999.90;;;1.00;99.90;;;;;;5053658;28;20446;-71
2022/03/20 04:41:11;;;;;;;1999.90;999.90;;;1.00;99.90;;;;;;5053940;28;20470;-71
2022/03/20 04:43:38;;;;;;;1999.90;999.90;;;0.70;99.90;;;;;;5054105;28;20496;-70
2022/03/20 04:46:04;;;;;;;1999.90;999.90;;;0.80;99.90;;;;;;5054080;28;21032;-71
2022/03/20 04:59:28;;;;;;;1999.90;999.90;;;0.70;99.90;;;;;;5053471;28;20445;-71
2022/03/20 05:01:55;;;;;;;1999.90;999.90;;;0.60;99.90;;;;;;5053624;28;20454;-71
2022/03/20 05:04:22;;;;;;;1999.90;999.90;;;0.80;99.90;;;;;;5053312;28;20516;-71
2022/03/20 05:06:50;;;;;;;1999.90;999.90;;;1.20;99.90;;;;;;5053812;28;20442;-71
2022/03/20 05:14:45;;;;;;;1999.90;999.90;;;0.70;99.90;;;;;;5053191;28;21044;-71
2022/03/20 05:17:12;;;;;;;1999.90;999.90;;;1.10;99.90;;;;;;5053744;28;20442;-71
2022/03/20 05:19:40;;;;;;;1999.90;999.90;;;1.10;99.90;;;;;;5053234;28;20450;-71
2022/03/20 05:22:10;;;;;;;1999.90;999.90;;;0.60;99.90;;;;;;5052587;28;20868;-70
2022/03/20 05:24:37;;;;;;;1999.90;999.90;;;0.80;99.90;;;;;;5052841;28;20474;-70
2022/03/20 05:27:05;;;;;;;1999.90;999.90;;;0.80;99.90;;;;;;5053204;28;20469;-70
2022/03/20 05:29:32;;;;;;;1999.90;999.90;;;0.60;99.90;;;;;;5052882;28;20458;-70
2022/03/20 05:31:59;;;;;;;1999.90;999.90;;;1.10;99.90;;;;;;5052754;28;20794;-70
2022/03/20 05:34:25;;;;;;;1999.90;999.90;;;1.30;99.90;;;;;;5053013;28;20567;-71
2022/03/20 05:36:52;;;;;;;1999.90;999.90;;;0.90;99.90;;;;;;5053118;28;20457;-70
2022/03/20 05:39:20;;;;;;;1999.90;999.90;;;0.60;99.90;;;;;;5052943;28;20512;-69
2022/03/20 05:41:47;;;;;;;1999.90;999.90;;;0.60;99.90;;;;;;5052953;28;21001;-71
2022/03/20 05:44:16;;;;;;;1999.90;999.90;;;0.90;99.90;;;;;;5052255;28;21008;-71
2022/03/20 05:46:46;;;;;;;1999.90;999.90;;;0.60;99.90;;;;;;5052429;28;20831;-70
2022/03/20 05:49:12;;;;;;;1999.90;999.90;;;0.70;99.90;;;;;;5052572;28;20450;-71
2022/03/20 05:51:40;;;;;;;1999.90;999.90;;;0.70;99.90;;;;;;5052757;28;20485;-71
2022/03/20 05:54:07;;;;;;;1999.90;999.90;;;0.70;99.90;;;;;;5052307;28;20532;-71
2022/03/20 05:59:20;;;;;;;1999.90;999.90;;;0.70;99.90;;;;;;5052605;28;20509;-71
2022/03/20 06:01:48;;;;;;;1999.90;999.90;;;1.30;99.90;;;;;;5052041;28;20450;-71
2022/03/20 06:04:15;;;;;;;1999.90;999.90;;;1.00;99.90;;;;;;5052456;28;20466;-71
2022/03/20 06:06:42;;;;;;;1999.90;999.90;;;1.00;99.90;;;;;;5052191;28;20481;-71
2022/03/20 06:09:09;;;;;;;1999.90;999.90;;;1.30;99.90;;;;;;5052223;28;20474;-70
2022/03/20 06:11:38;;;;;;;1999.90;999.90;;;0.80;99.90;;;;;;5052057;28;20451;-70
2022/03/20 06:14:06;;;;;;;1999.90;999.90;;;1.00;99.90;;;;;;5052227;28;20478;-71
2022/03/20 06:16:34;;;;;;;1999.90;999.90;;;1.00;99.90;;;;;;5051868;28;20451;-71
2022/03/20 06:19:01;;;;;;;1999.90;999.90;;;0.90;99.90;;;;;;5052695;28;20504;-70
2022/03/20 06:21:28;;;;;;;1999.90;999.90;;;1.00;99.90;;;;;;5051900;28;20470;-71
2022/03/20 06:23:55;;;;;;;1999.90;999.90;;;1.10;99.90;;;;;;5052173;28;20474;-71
2022/03/20 06:26:23;;;;;;;1999.90;999.90;;;1.30;99.90;;;;;;5051903;28;20460;-71
2022/03/20 06:28:51;;;;;;;1999.90;999.90;;;1.40;99.90;;;;;;5052249;28;20817;-70
2022/03/20 06:31:19;;;;;;;1999.90;999.90;;;1.50;99.90;;;;;;5051792;28;20511;-70
2022/03/20 06:33:47;;;;;;;1999.90;999.90;;;1.50;99.90;;;;;;5051023;28;20478;-70
2022/03/20 06:36:15;;;;;;;1999.90;999.90;;;1.60;99.90;;;;;;5051955;28;20451;-70
2022/03/20 06:38:42;;;;;;;1999.90;999.90;;;1.50;99.90;;;;;;5051940;28;21012;-71
2022/03/20 06:41:09;;;;;;;1999.90;999.90;;;1.50;99.90;;;;;;5051945;28;20496;-71
2022/03/20 06:43:37;;;;;;;1999.90;999.90;;;1.90;99.90;;;;;;5051773;28;20462;-70
2022/03/20 06:46:05;;;;;;;1999.90;999.90;;;1.60;99.90;;;;;;5037577;28;20472;-70
2022/03/20 06:48:32;;;;;;;1999.90;999.90;;;1.70;99.90;;;;;;5051878;28;20450;-70
2022/03/20 06:50:59;;;;;;;1999.90;999.90;;;1.80;99.90;;;;;;5051489;28;20450;-70
2022/03/20 06:53:26;;;;;;;1999.90;999.90;;;2.00;99.90;;;;;;5051873;28;20537;-70
2022/03/20 06:55:53;;;;;;;1999.90;999.90;;;2.00;99.90;;;;;;5051529;28;20445;-71
2022/03/20 06:58:22;;;;;;;1999.90;999.90;;;2.10;99.90;;;;;;5051345;28;20508;-71
2022/03/20 07:00:49;;;;;;;1999.90;999.90;;;2.20;99.90;;;;;;5051066;28;20549;-71
2022/03/20 07:03:18;;;;;;;1999.90;999.90;;;2.30;99.90;;;;;;5051856;28;20516;-70
2022/03/20 07:05:44;;;;;;;1999.90;999.90;;;2.30;99.90;;;;;;5051245;28;20508;-70
2022/03/20 07:08:11;;;;;;;1999.90;999.90;;;2.50;99.90;;;;;;5051585;28;20454;-70
2022/03/20 07:10:38;;;;;;;1999.90;999.90;;;2.60;99.90;;;;;;5050337;28;20450;-71
2022/03/20 07:15:51;;;;;;;1999.90;999.90;;;2.80;99.90;;;;;;5051165;28;20481;-71
2022/03/20 07:18:21;;;;;;;1999.90;999.90;;;3.00;99.90;;;;;;5051596;28;20533;-71
2022/03/20 07:20:49;;;;;;;1999.90;999.90;;;3.00;99.90;;;;;;5051180;28;20462;-70
2022/03/20 07:23:16;;;;;;;1999.90;999.90;;;3.10;99.90;;;;;;5050903;28;20834;-70
2022/03/20 07:31:13;;;;;;;1999.90;999.90;;;3.40;99.90;;;;;;5029242;28;20419;-73
2022/03/20 07:33:41;;;;;;;1999.90;999.90;;;3.60;99.90;;;;;;5029221;28;20866;-73
2022/03/20 07:36:08;;;;;;;1999.90;999.90;;;3.60;99.90;;;;;;5030644;28;20486;-72
2022/03/20 07:38:36;;;;;;;1999.90;999.90;;;3.70;99.90;;;;;;5030375;28;20462;-73
2022/03/20 07:41:03;;;;;;;1999.90;999.90;;;3.90;99.90;;;;;;5029788;28;20530;-72
2022/03/20 07:43:29;;;;;;;1999.90;999.90;;;3.90;99.90;;;;;;5029591;28;20943;-73
2022/03/20 07:45:56;;;;;;;1999.90;999.90;;;4.00;99.90;;;;;;5032872;28;20490;-74
2022/03/20 07:48:24;;;;;;;1999.90;999.90;;;4.00;99.90;;;;;;5034116;28;20439;-72
2022/03/20 07:50:53;;;;;;;1999.90;999.90;;;4.10;99.90;;;;;;5035822;28;20454;-73
2022/03/20 07:53:20;;;;;;;1999.90;999.90;;;4.10;99.90;;;;;;5039257;28;20921;-73
2022/03/20 07:55:47;;;;;;;1999.90;999.90;;;4.00;99.90;;;;;;5038080;28;20467;-73
2022/03/20 07:58:17;;;;;;;1999.90;999.90;;;4.10;99.90;;;;;;5036520;28;20458;-73
2022/03/20 08:00:44;;;;;;;1999.90;999.90;;;4.50;99.90;;;;;;5033867;28;20451;-73
2022/03/20 08:03:11;;;;;;;1999.90;999.90;;;4.30;99.90;;;;;;5033841;28;20455;-73
2022/03/20 08:05:39;;;;;;;1999.90;999.90;;;4.40;99.90;;;;;;5032609;28;20483;-75
2022/03/20 08:08:11;;;;;;;1999.90;999.90;;;4.60;99.90;;;;;;5033171;28;20845;-73
2022/03/20 08:10:37;;;;;;;1999.90;999.90;;;4.70;99.90;;;;;;5034566;28;20542;-72
2022/03/20 08:13:05;;;;;;;1999.90;999.90;;;4.90;99.90;;;;;;5032544;28;20462;-75
2022/03/20 08:15:32;;;;;;;1999.90;999.90;;;4.90;99.90;;;;;;5036075;28;20517;-72
2022/03/20 08:17:58;;;;;;;1999.90;999.90;;;5.50;99.90;;;;;;5036651;28;20451;-75
2022/03/20 08:20:25;;;;;;;1999.90;999.90;;;5.30;99.90;;;;;;5035957;28;20461;-74
2022/03/20 08:22:52;;;;;;;1999.90;999.90;;;5.30;99.90;;;;;;5033959;28;20467;-76
2022/03/20 08:25:20;;;;;;;1999.90;999.90;;;5.30;99.90;;;;;;5036030;28;20487;-74
2022/03/20 08:27:49;;;;;;;1999.90;999.90;;;5.20;99.90;;;;;;5037686;28;20481;-72
2022/03/20 08:30:17;;;;;;;1999.90;999.90;;;5.20;99.80;;;;;;5039678;28;20458;-73
2022/03/20 08:32:46;;;;;;;1999.90;999.90;;;5.20;99.90;;;;;;5037373;28;20542;-73
2022/03/20 08:35:14;;;;;;;1999.90;999.90;;;5.30;99.90;;;;;;5037031;28;20554;-73
2022/03/20 08:37:43;;;;;;;1999.90;999.90;;;5.40;99.90;;;;;;5035752;28;20455;-74
2022/03/20 08:40:15;;;;;;;1999.90;999.90;;;5.40;99.90;;;;;;5036053;28;20521;-72
2022/03/20 08:42:44;;;;;;;1999.90;999.90;;;5.50;99.80;;;;;;5034099;28;20489;-74
2022/03/20 08:45:11;;;;;;;1999.90;999.90;;;5.60;99.70;;;;;;5030246;28;20537;-74
2022/03/20 08:47:38;;;;;;;1999.90;999.90;;;5.70;99.50;;;;;;5033986;28;20840;-72
2022/03/20 08:50:06;;;;;;;1999.90;999.90;;;5.80;99.20;;;;;;5020916;28;20459;-74
2022/03/20 08:52:33;;;;;;;1999.90;999.90;;;5.90;99.10;;;;;;5013761;28;20458;-75
2022/03/20 08:55:00;;;;;;;1999.90;999.90;;;6.00;98.80;;;;;;5033924;28;20904;-73
2022/03/20 08:57:28;;;;;;;1999.90;999.90;;;6.20;99.30;;;;;;5033503;28;20475;-74
2022/03/20 08:59:56;;;;;;;1999.90;999.90;;;6.40;99.30;;;;;;5034401;28;20451;-74
2022/03/20 09:02:22;;;;;;;1999.90;999.90;;;6.60;99.00;;;;;;5033800;28;20458;-72
2022/03/20 09:04:49;;;;;;;1999.90;999.90;;;6.80;98.30;;;;;;5033422;28;20479;-73
2022/03/20 09:07:16;;;;;;;1999.90;999.90;;;6.80;98.30;;;;;;5033989;28;20455;-72
2022/03/20 09:09:42;;;;;;;1999.90;999.90;;;6.80;97.40;;;;;;5035309;28;20448;-73
2022/03/20 09:12:11;;;;;;;1999.90;999.90;;;6.80;97.50;;;;;;5035508;28;20947;-74
2022/03/20 09:14:38;;;;;;;1999.90;999.90;;;6.90;97.70;;;;;;5035970;28;20451;-73
2022/03/20 09:19:54;;;;;;;1999.90;999.90;;;7.20;97.30;;;;;;5016144;28;20436;-74
2022/03/20 09:22:21;;;;;;;1999.90;999.90;;;7.40;97.20;;;;;;5030573;28;20454;-74
2022/03/20 09:24:47;;;;;;;1999.90;999.90;;;7.60;97.20;;;;;;5035105;28;20852;-72
2022/03/20 09:27:14;;;;;;;1999.90;999.90;;;7.90;97.30;;;;;;5035348;28;20454;-71
2022/03/20 09:29:41;;;;;;;1999.90;999.90;;;8.00;96.40;;;;;;5036115;28;20455;-73
2022/03/20 09:32:10;;;;;;;1999.90;999.90;;;8.00;95.70;;;;;;5035195;28;20455;-73
2022/03/20 09:34:37;;;;;;;1999.90;999.90;;;8.10;95.70;;;;;;5035212;28;20503;-70
2022/03/20 09:37:05;;;;;;;1999.90;999.90;;;8.20;95.00;;;;;;5035792;28;20449;-73
2022/03/20 09:39:32;;;;;;;1999.90;999.90;;;8.50;95.60;;;;;;5035202;28;20447;-73
2022/03/20 09:42:00;;;;;;;1999.90;999.90;;;8.60;94.60;;;;;;5035076;28;20954;-73
2022/03/20 09:44:27;;;;;;;1999.90;999.90;;;8.60;94.00;;;;;;5035854;28;20958;-73
2022/03/20 09:46:54;;;;;;;1999.90;999.90;;;8.50;93.10;;;;;;5035582;28;20502;-73
2022/03/20 09:49:25;;;;;;;1999.90;999.90;;;8.70;94.00;;;;;;5034906;28;20455;-73
2022/03/20 09:51:53;;;;;;;1999.90;999.90;;;8.80;93.70;;;;;;5035264;28;20820;-73
2022/03/20 09:54:20;;;;;;;1999.90;999.90;;;9.00;92.70;;;;;;5035785;28;20455;-73
2022/03/20 09:56:51;;;;;;;1999.90;999.90;;;9.00;92.00;;;;;;5035184;28;20474;-74
2022/03/20 09:59:18;;;;;;;1999.90;999.90;;;9.20;92.20;;;;;;5030325;28;20451;-72
2022/03/20 10:01:45;;;;;;;1999.90;999.90;;;9.30;93.30;;;;;;5027567;28;20468;-72
2022/03/20 10:04:14;;;;;;;1999.90;999.90;;;9.30;92.20;;;;;;5034345;28;20883;-74
2022/03/20 10:06:44;;;;;;;1999.90;999.90;;;9.40;92.20;;;;;;5034289;28;20490;-73
2022/03/20 10:09:12;;;;;;;1999.90;999.90;;;9.40;92.00;;;;;;5033355;28;20447;-73
2022/03/20 10:11:49;;;;;;;1999.90;999.90;;;9.40;92.00;;;;;;5032975;28;20470;-70
2022/03/20 10:14:18;;;;;;;1999.90;999.90;;;9.60;91.60;;;;;;5032905;28;20505;-73
2022/03/20 10:16:48;;;;;;;1999.90;999.90;;;9.60;91.60;;;;;;5035643;28;20530;-75
2022/03/20 10:19:28;;;;;;;1999.90;999.90;;;9.70;90.90;;;;;;5033616;28;20514;-73
2022/03/20 10:21:58;;;;;;;1999.90;999.90;;;9.70;91.00;;;;;;5033050;28;20439;-74
2022/03/20 10:24:27;;;;;;;1999.90;999.90;;;9.80;90.80;;;;;;5033373;28;20451;-75
2022/03/20 10:27:07;;;;;;;1999.90;999.90;;;10.00;90.70;;;;;;5029104;28;21069;-73
2022/03/20 10:29:35;;;;;;;1999.90;999.90;;;10.10;90.40;;;;;;5032248;28;20958;-73
2022/03/20 10:32:07;;;;;;;1999.90;999.90;;;9.90;90.00;;;;;;5033055;28;20452;-72
2022/03/20 10:34:47;;;;;;;1999.90;999.90;;;9.90;90.00;;;;;;5033267;28;20451;-74
2022/03/20 10:37:17;;;;;;;1999.90;999.90;;;10.00;89.30;;;;;;5013461;28;20433;-74
2022/03/20 10:39:44;;;;;;;1999.90;999.90;;;10.10;89.50;;;;;;5013526;28;21007;-73
2022/03/20 10:42:12;;;;;;;1999.90;999.90;;;10.30;90.10;;;;;;5013277;28;20451;-75
2022/03/20 10:44:39;;;;;;;1999.90;999.90;;;10.20;89.90;;;;;;5013592;28;20502;-72
2022/03/20 10:47:12;;;;;;;1999.90;999.90;;;10.30;90.30;;;;;;5013588;28;20452;-73
2022/03/20 10:49:40;;;;;;;1999.90;999.90;;;10.30;87.10;;;;;;5013520;28;20457;-74
2022/03/20 10:52:09;;;;;;;1999.90;999.90;;;10.50;89.90;;;;;;5018181;28;20533;-73
2022/03/20 10:54:42;;;;;;;1999.90;999.90;;;10.60;86.80;;;;;;5032965;28;20450;-73
2022/03/20 10:57:11;;;;;;;1999.90;999.90;;;10.60;85.10;;;;;;5032989;28;20442;-73
2022/03/20 10:59:39;;;;;;;1999.90;999.90;;;10.60;86.20;;;;;;5032635;28;20486;-72
2022/03/20 11:02:08;;;;;;;1999.90;999.90;;;10.70;87.10;;;;;;5032505;28;20451;-74
2022/03/20 11:04:35;;;;;;;1999.90;999.90;;;10.70;86.70;;;;;;5032590;28;20454;-73
2022/03/20 11:07:07;;;;;;;1999.90;999.90;;;10.80;85.60;;;;;;5032402;28;20441;-75
2022/03/20 11:09:34;;;;;;;1999.90;999.90;;;10.80;85.90;;;;;;5032767;28;20471;-74
2022/03/20 11:12:08;;;;;;;1999.90;999.90;;;10.70;86.00;;;;;;5034752;28;20877;-72
2022/03/20 11:14:36;;;;;;;1999.90;999.90;;;10.80;84.70;;;;;;5035079;28;20432;-75
2022/03/20 11:17:06;;;;;;;1999.90;999.90;;;10.90;83.80;;;;;;5034208;28;20492;-74
2022/03/20 11:19:35;;;;;;;1999.90;999.90;;;11.00;85.70;;;;;;5033652;28;20443;-73
2022/03/20 11:22:04;;;;;;;1999.90;999.90;;;11.00;84.30;;;;;;5036472;28;20526;-73
2022/03/20 11:24:32;;;;;;;1999.90;999.90;;;11.00;86.40;;;;;;5036961;28;20447;-70
2022/03/20 11:27:03;;;;;;;1999.90;999.90;;;11.20;84.70;;;;;;5036195;28;20924;-73
2022/03/20 11:29:32;;;;;;;1999.90;999.90;;;11.20;85.40;;;;;;5036525;28;20452;-74
2022/03/20 11:32:01;;;;;;;1999.90;999.90;;;11.30;83.60;;;;;;5036033;28;20529;-73
2022/03/20 11:34:30;;;;;;;1999.90;999.90;;;11.20;86.90;;;;;;5036593;28;20541;-75
2022/03/20 11:37:05;;;;;;;1999.90;999.90;;;11.20;85.50;;;;;;5036631;28;20465;-74
2022/03/20 11:39:32;;;;;;;1999.90;999.90;;;11.40;83.50;;;;;;5036701;28;20447;-74
2022/03/20 11:42:22;;;;;;;1999.90;999.90;;;11.30;82.10;;;;;;5036335;28;20470;-74
2022/03/20 11:44:53;;;;;;;1999.90;999.90;;;11.60;83.30;;;;;;5036388;28;20514;-73
2022/03/20 11:47:20;;;;;;;1999.90;999.90;;;11.50;83.90;;;;;;5036311;28;20443;-73
2022/03/20 11:50:13;;;;;;;1999.90;999.90;;;11.70;84.10;;;;;;5036247;28;20447;-75
2022/03/20 11:53:03;;;;;;;1999.90;999.90;;;11.70;81.60;;;;;;5036182;28;20567;-73
2022/03/20 11:55:34;;;;;;;1999.90;999.90;;;11.70;82.00;;;;;;5032820;28;20471;-74
2022/03/20 11:58:09;;;;;;;1999.90;999.90;;;12.10;78.10;;;;;;5035968;28;20427;-73
2022/03/20 12:00:39;;;;;;;1999.90;999.90;;;11.50;77.90;;;;;;5036034;28;20453;-74
2022/03/20 12:03:47;;;;;;;1999.90;999.90;;;11.60;77.80;;;;;;5035761;28;21234;-73
2022/03/20 12:06:47;;;;;;;1999.90;999.90;;;11.70;77.10;;;;;;5036098;28;20491;-73
2022/03/20 12:09:37;;;;;;;1999.90;999.90;;;11.70;80.90;;;;;;5035682;28;20439;-73
2022/03/20 12:12:16;;;;;;;1999.90;999.90;;;11.80;79.90;;;;;;5035529;28;20454;-73
2022/03/20 12:14:51;;;;;;;1999.90;999.90;;;11.90;78.00;;;;;;5035554;28;20934;-74
2022/03/20 12:17:18;;;;;;;1999.90;999.90;;;11.90;76.30;;;;;;5035818;28;20455;-74
2022/03/20 12:19:48;;;;;;;1999.90;999.90;;;11.80;76.90;;;;;;5035730;28;20804;-75
2022/03/20 12:22:27;;;;;;;1999.90;999.90;;;11.70;76.70;;;;;;5035093;28;20451;-73
2022/03/20 12:24:55;;;;;;;1999.90;999.90;;;11.70;75.70;;;;;;5035376;28;20532;-74
2022/03/20 12:27:41;;;;;;;1999.90;999.90;;;11.90;76.90;;;;;;5035350;28;20467;-74
2022/03/20 12:30:45;;;;;;;1999.90;999.90;;;11.80;76.80;;;;;;5035112;28;20558;-72
2022/03/20 12:33:26;;;;;;;1999.90;999.90;;;12.10;77.50;;;;;;4954609;29;20450;-74
2022/03/20 12:35:53;;;;;;;1999.90;999.90;;;12.00;75.70;;;;;;5027408;28;20903;-73
2022/03/20 12:38:45;;;;;;;1999.90;999.90;;;12.10;76.30;;;;;;5035439;28;20459;-74
2022/03/20 12:41:16;;;;;;;1999.90;999.90;;;12.10;76.00;;;;;;5035071;28;21104;-74
2022/03/20 12:43:44;;;;;;;1999.90;999.90;;;12.10;76.00;;;;;;5035266;28;20436;-74
2022/03/20 12:46:13;;;;;;;1999.90;999.90;;;12.10;76.10;;;;;;5035046;28;20490;-74
2022/03/20 12:48:52;;;;;;;1999.90;999.90;;;12.00;75.80;;;;;;5035178;28;20455;-75
2022/03/20 12:51:29;;;;;;;1999.90;999.90;;;11.80;75.40;;;;;;5034731;28;20451;-74
2022/03/20 12:54:00;;;;;;;1999.90;999.90;;;12.10;77.30;;;;;;5034918;28;20443;-73